sensor_id;sensor_type;location;lat;lon;timestamp;P1;durP1;ratioP1;P2;durP2;ratioP2
75898;SDS011;64576;50.460;4.866;2023-06-22T00:01:50;12.23;;;7.95;;
75898;SDS011;64576;50.460;4.866;2023-06-22T00:04:16;25.50;;;9.82;;
75898;SDS011;64576;50.460;4.866;2023-06-22T00:06:41;14.88;;;8.63;;
75898;SDS011;64576;50.460;4.866;2023-06-22T00:09:06;11.80;;;7.60;;
75898;SDS011;64576;50.460;4.866;2023-06-22T00:11:32;14.38;;;8.40;;
75898;SDS011;64576;50.460;4.866;2023-06-22T00:14:01;12.30;;;8.00;;
75898;SDS011;64576;50.460;4.866;2023-06-22T00:16:27;13.55;;;7.30;;
75898;SDS011;64576;50.460;4.866;2023-06-22T00:18:52;13.45;;;7.68;;
75898;SDS011;64576;50.460;4.866;2023-06-22T00:21:17;11.00;;;8.05;;
75898;SDS011;64576;50.460;4.866;2023-06-22T00:23:45;13.80;;;8.63;;
75898;SDS011;64576;50.460;4.866;2023-06-22T00:26:11;14.55;;;9.30;;
75898;SDS011;64576;50.460;4.866;2023-06-22T00:28:36;12.95;;;8.32;;
75898;SDS011;64576;50.460;4.866;2023-06-22T00:31:02;12.57;;;7.43;;
75898;SDS011;64576;50.460;4.866;2023-06-22T00:33:27;12.68;;;8.52;;
75898;SDS011;64576;50.460;4.866;2023-06-22T00:35:53;11.38;;;7.47;;
75898;SDS011;64576;50.460;4.866;2023-06-22T00:38:19;12.88;;;9.13;;
75898;SDS011;64576;50.460;4.866;2023-06-22T00:40:45;12.88;;;8.13;;
75898;SDS011;64576;50.460;4.866;2023-06-22T00:43:10;17.38;;;8.90;;
75898;SDS011;64576;50.460;4.866;2023-06-22T00:45:35;11.40;;;7.88;;
75898;SDS011;64576;50.460;4.866;2023-06-22T00:48:01;12.48;;;7.78;;
75898;SDS011;64576;50.460;4.866;2023-06-22T00:50:29;12.55;;;8.10;;
75898;SDS011;64576;50.460;4.866;2023-06-22T00:52:58;11.80;;;7.80;;
75898;SDS011;64576;50.460;4.866;2023-06-22T00:55:25;12.18;;;7.35;;
75898;SDS011;64576;50.460;4.866;2023-06-22T00:57:51;13.38;;;8.85;;
75898;SDS011;64576;50.460;4.866;2023-06-22T01:00:21;17.02;;;9.95;;
75898;SDS011;64576;50.460;4.866;2023-06-22T01:02:49;15.45;;;9.88;;
75898;SDS011;64576;50.460;4.866;2023-06-22T01:05:20;12.10;;;9.32;;
75898;SDS011;64576;50.460;4.866;2023-06-22T01:16:28;11.23;;;7.65;;
75898;SDS011;64576;50.460;4.866;2023-06-22T01:18:57;14.88;;;9.57;;
75898;SDS011;64576;50.460;4.866;2023-06-22T01:21:25;14.07;;;8.77;;
75898;SDS011;64576;50.460;4.866;2023-06-22T01:26:28;13.75;;;7.63;;
75898;SDS011;64576;50.460;4.866;2023-06-22T01:29:18;13.20;;;8.23;;
75898;SDS011;64576;50.460;4.866;2023-06-22T01:31:46;12.98;;;8.02;;
75898;SDS011;64576;50.460;4.866;2023-06-22T01:34:13;13.55;;;7.38;;
75898;SDS011;64576;50.460;4.866;2023-06-22T01:36:40;13.10;;;7.78;;
75898;SDS011;64576;50.460;4.866;2023-06-22T01:39:07;13.48;;;8.52;;
75898;SDS011;64576;50.460;4.866;2023-06-22T01:41:37;12.68;;;8.18;;
75898;SDS011;64576;50.460;4.866;2023-06-22T01:44:05;16.48;;;8.70;;
75898;SDS011;64576;50.460;4.866;2023-06-22T01:46:32;12.55;;;7.65;;
75898;SDS011;64576;50.460;4.866;2023-06-22T01:48:59;15.40;;;8.73;;
75898;SDS011;64576;50.460;4.866;2023-06-22T01:51:25;15.48;;;9.65;;
75898;SDS011;64576;50.460;4.866;2023-06-22T01:53:51;12.20;;;7.05;;
75898;SDS011;64576;50.460;4.866;2023-06-22T01:56:16;13.32;;;7.60;;
75898;SDS011;64576;50.460;4.866;2023-06-22T01:58:46;14.75;;;7.20;;
75898;SDS011;64576;50.460;4.866;2023-06-22T02:01:17;12.25;;;6.40;;
75898;SDS011;64576;50.460;4.866;2023-06-22T02:03:52;13.75;;;6.97;;
75898;SDS011;64576;50.460;4.866;2023-06-22T02:06:27;13.32;;;7.30;;
75898;SDS011;64576;50.460;4.866;2023-06-22T02:09:05;13.55;;;7.05;;
75898;SDS011;64576;50.460;4.866;2023-06-22T02:11:33;9.38;;;6.05;;
75898;SDS011;64576;50.460;4.866;2023-06-22T02:14:00;10.50;;;6.80;;
75898;SDS011;64576;50.460;4.866;2023-06-22T02:16:26;10.75;;;6.70;;
75898;SDS011;64576;50.460;4.866;2023-06-22T02:18:54;11.93;;;6.72;;
75898;SDS011;64576;50.460;4.866;2023-06-22T02:21:20;13.15;;;7.55;;
75898;SDS011;64576;50.460;4.866;2023-06-22T02:23:46;13.07;;;7.43;;
75898;SDS011;64576;50.460;4.866;2023-06-22T02:26:11;12.00;;;6.70;;
75898;SDS011;64576;50.460;4.866;2023-06-22T02:28:37;15.70;;;8.52;;
75898;SDS011;64576;50.460;4.866;2023-06-22T02:31:03;12.10;;;6.75;;
75898;SDS011;64576;50.460;4.866;2023-06-22T02:33:28;13.68;;;7.03;;
75898;SDS011;64576;50.460;4.866;2023-06-22T02:35:54;22.80;;;8.75;;
75898;SDS011;64576;50.460;4.866;2023-06-22T02:38:19;32.72;;;11.07;;
75898;SDS011;64576;50.460;4.866;2023-06-22T02:40:45;15.55;;;8.75;;
75898;SDS011;64576;50.460;4.866;2023-06-22T02:43:11;16.33;;;9.10;;
75898;SDS011;64576;50.460;4.866;2023-06-22T02:45:36;14.35;;;9.30;;
75898;SDS011;64576;50.460;4.866;2023-06-22T02:48:01;15.13;;;7.75;;
75898;SDS011;64576;50.460;4.866;2023-06-22T02:50:27;13.88;;;8.93;;
75898;SDS011;64576;50.460;4.866;2023-06-22T02:52:53;13.93;;;8.63;;
75898;SDS011;64576;50.460;4.866;2023-06-22T02:55:18;13.45;;;8.38;;
75898;SDS011;64576;50.460;4.866;2023-06-22T02:57:44;15.52;;;9.10;;
75898;SDS011;64576;50.460;4.866;2023-06-22T03:00:12;16.73;;;8.88;;
75898;SDS011;64576;50.460;4.866;2023-06-22T03:02:47;18.80;;;10.25;;
75898;SDS011;64576;50.460;4.866;2023-06-22T03:05:14;14.50;;;8.23;;
75898;SDS011;64576;50.460;4.866;2023-06-22T03:07:40;13.80;;;8.35;;
75898;SDS011;64576;50.460;4.866;2023-06-22T03:10:07;10.02;;;5.78;;
75898;SDS011;64576;50.460;4.866;2023-06-22T03:12:34;11.82;;;6.65;;
75898;SDS011;64576;50.460;4.866;2023-06-22T03:14:59;10.15;;;6.15;;
75898;SDS011;64576;50.460;4.866;2023-06-22T03:17:25;12.18;;;6.32;;
75898;SDS011;64576;50.460;4.866;2023-06-22T03:19:50;13.43;;;6.97;;
75898;SDS011;64576;50.460;4.866;2023-06-22T03:22:15;11.75;;;6.38;;
75898;SDS011;64576;50.460;4.866;2023-06-22T03:24:41;13.57;;;6.30;;
75898;SDS011;64576;50.460;4.866;2023-06-22T03:27:06;13.40;;;6.93;;
75898;SDS011;64576;50.460;4.866;2023-06-22T03:29:31;14.18;;;6.35;;
75898;SDS011;64576;50.460;4.866;2023-06-22T03:31:57;13.70;;;7.10;;
75898;SDS011;64576;50.460;4.866;2023-06-22T03:34:22;14.13;;;8.20;;
75898;SDS011;64576;50.460;4.866;2023-06-22T03:36:48;19.13;;;8.02;;
75898;SDS011;64576;50.460;4.866;2023-06-22T03:39:13;16.23;;;8.82;;
75898;SDS011;64576;50.460;4.866;2023-06-22T03:41:38;14.40;;;7.50;;
75898;SDS011;64576;50.460;4.866;2023-06-22T03:44:04;21.17;;;9.60;;
75898;SDS011;64576;50.460;4.866;2023-06-22T03:46:29;16.02;;;8.88;;
75898;SDS011;64576;50.460;4.866;2023-06-22T03:48:55;16.33;;;8.38;;
75898;SDS011;64576;50.460;4.866;2023-06-22T03:51:20;15.20;;;8.52;;
75898;SDS011;64576;50.460;4.866;2023-06-22T03:53:46;17.85;;;8.63;;
75898;SDS011;64576;50.460;4.866;2023-06-22T03:56:11;14.57;;;8.95;;
75898;SDS011;64576;50.460;4.866;2023-06-22T03:58:36;18.73;;;8.73;;
75898;SDS011;64576;50.460;4.866;2023-06-22T04:01:07;16.58;;;8.30;;
75898;SDS011;64576;50.460;4.866;2023-06-22T04:03:36;17.17;;;8.88;;
75898;SDS011;64576;50.460;4.866;2023-06-22T04:06:02;17.52;;;8.20;;
75898;SDS011;64576;50.460;4.866;2023-06-22T04:08:27;18.65;;;8.85;;
75898;SDS011;64576;50.460;4.866;2023-06-22T04:10:53;16.40;;;8.35;;
75898;SDS011;64576;50.460;4.866;2023-06-22T04:13:18;15.68;;;9.43;;
75898;SDS011;64576;50.460;4.866;2023-06-22T04:15:44;19.92;;;9.43;;
75898;SDS011;64576;50.460;4.866;2023-06-22T04:18:10;16.85;;;9.13;;
75898;SDS011;64576;50.460;4.866;2023-06-22T04:20:35;17.92;;;9.57;;
75898;SDS011;64576;50.460;4.866;2023-06-22T04:23:01;17.02;;;9.25;;
75898;SDS011;64576;50.460;4.866;2023-06-22T04:25:26;15.38;;;7.90;;
75898;SDS011;64576;50.460;4.866;2023-06-22T04:27:52;16.48;;;9.32;;
75898;SDS011;64576;50.460;4.866;2023-06-22T04:30:17;20.27;;;9.40;;
75898;SDS011;64576;50.460;4.866;2023-06-22T04:32:43;13.70;;;8.60;;
75898;SDS011;64576;50.460;4.866;2023-06-22T04:35:09;19.38;;;9.60;;
75898;SDS011;64576;50.460;4.866;2023-06-22T04:37:35;21.38;;;9.50;;
75898;SDS011;64576;50.460;4.866;2023-06-22T04:40:00;18.58;;;9.75;;
75898;SDS011;64576;50.460;4.866;2023-06-22T04:42:26;18.63;;;10.35;;
75898;SDS011;64576;50.460;4.866;2023-06-22T04:44:52;19.08;;;10.80;;
75898;SDS011;64576;50.460;4.866;2023-06-22T04:47:17;18.88;;;9.15;;
75898;SDS011;64576;50.460;4.866;2023-06-22T04:49:43;17.02;;;9.77;;
75898;SDS011;64576;50.460;4.866;2023-06-22T04:52:10;16.15;;;9.75;;
75898;SDS011;64576;50.460;4.866;2023-06-22T04:54:38;17.10;;;8.65;;
75898;SDS011;64576;50.460;4.866;2023-06-22T04:57:06;15.95;;;8.57;;
75898;SDS011;64576;50.460;4.866;2023-06-22T04:59:35;16.45;;;8.85;;
75898;SDS011;64576;50.460;4.866;2023-06-22T05:02:04;16.13;;;8.38;;
75898;SDS011;64576;50.460;4.866;2023-06-22T05:04:30;18.73;;;10.70;;
75898;SDS011;64576;50.460;4.866;2023-06-22T05:06:57;17.55;;;9.93;;
75898;SDS011;64576;50.460;4.866;2023-06-22T05:09:23;21.20;;;9.75;;
75898;SDS011;64576;50.460;4.866;2023-06-22T05:11:50;19.48;;;9.85;;
75898;SDS011;64576;50.460;4.866;2023-06-22T05:14:16;20.30;;;9.80;;
75898;SDS011;64576;50.460;4.866;2023-06-22T05:16:42;20.23;;;9.25;;
75898;SDS011;64576;50.460;4.866;2023-06-22T05:19:07;19.10;;;10.52;;
75898;SDS011;64576;50.460;4.866;2023-06-22T05:21:33;21.98;;;10.55;;
75898;SDS011;64576;50.460;4.866;2023-06-22T05:23:59;22.88;;;9.60;;
75898;SDS011;64576;50.460;4.866;2023-06-22T05:26:28;20.77;;;10.57;;
75898;SDS011;64576;50.460;4.866;2023-06-22T05:28:54;22.15;;;10.40;;
75898;SDS011;64576;50.460;4.866;2023-06-22T05:31:20;20.75;;;11.05;;
75898;SDS011;64576;50.460;4.866;2023-06-22T05:33:46;21.75;;;10.05;;
75898;SDS011;64576;50.460;4.866;2023-06-22T05:36:12;21.75;;;9.80;;
75898;SDS011;64576;50.460;4.866;2023-06-22T05:38:38;19.35;;;10.38;;
75898;SDS011;64576;50.460;4.866;2023-06-22T05:41:04;24.02;;;11.40;;
75898;SDS011;64576;50.460;4.866;2023-06-22T05:43:30;18.45;;;9.88;;
75898;SDS011;64576;50.460;4.866;2023-06-22T05:45:56;20.75;;;10.55;;
75898;SDS011;64576;50.460;4.866;2023-06-22T05:48:22;26.85;;;12.80;;
75898;SDS011;64576;50.460;4.866;2023-06-22T05:50:47;25.70;;;12.20;;
75898;SDS011;64576;50.460;4.866;2023-06-22T05:53:13;25.67;;;12.98;;
75898;SDS011;64576;50.460;4.866;2023-06-22T05:55:38;23.67;;;12.18;;
75898;SDS011;64576;50.460;4.866;2023-06-22T05:58:03;26.02;;;12.75;;
75898;SDS011;64576;50.460;4.866;2023-06-22T06:00:29;21.73;;;11.38;;
75898;SDS011;64576;50.460;4.866;2023-06-22T06:02:55;26.33;;;12.73;;
75898;SDS011;64576;50.460;4.866;2023-06-22T06:05:20;24.98;;;13.10;;
75898;SDS011;64576;50.460;4.866;2023-06-22T06:07:46;25.38;;;13.48;;
75898;SDS011;64576;50.460;4.866;2023-06-22T06:10:11;21.90;;;12.85;;
75898;SDS011;64576;50.460;4.866;2023-06-22T06:12:37;26.25;;;14.93;;
75898;SDS011;64576;50.460;4.866;2023-06-22T06:15:03;25.17;;;16.33;;
75898;SDS011;64576;50.460;4.866;2023-06-22T06:17:29;23.52;;;14.20;;
75898;SDS011;64576;50.460;4.866;2023-06-22T06:19:54;32.45;;;16.65;;
75898;SDS011;64576;50.460;4.866;2023-06-22T06:22:20;22.63;;;14.73;;
75898;SDS011;64576;50.460;4.866;2023-06-22T06:24:46;25.63;;;15.35;;
75898;SDS011;64576;50.460;4.866;2023-06-22T06:27:12;26.83;;;14.68;;
75898;SDS011;64576;50.460;4.866;2023-06-22T06:29:38;30.08;;;14.32;;
75898;SDS011;64576;50.460;4.866;2023-06-22T06:32:03;23.65;;;14.35;;
75898;SDS011;64576;50.460;4.866;2023-06-22T06:34:29;25.48;;;15.27;;
75898;SDS011;64576;50.460;4.866;2023-06-22T06:36:54;24.38;;;13.50;;
75898;SDS011;64576;50.460;4.866;2023-06-22T06:39:20;23.63;;;14.35;;
75898;SDS011;64576;50.460;4.866;2023-06-22T06:41:45;22.00;;;13.80;;
75898;SDS011;64576;50.460;4.866;2023-06-22T06:44:11;27.23;;;15.25;;
75898;SDS011;64576;50.460;4.866;2023-06-22T06:46:36;23.02;;;14.38;;
75898;SDS011;64576;50.460;4.866;2023-06-22T06:49:02;25.65;;;15.95;;
75898;SDS011;64576;50.460;4.866;2023-06-22T06:51:28;23.58;;;14.80;;
75898;SDS011;64576;50.460;4.866;2023-06-22T06:53:53;27.90;;;15.57;;
75898;SDS011;64576;50.460;4.866;2023-06-22T06:56:19;29.27;;;16.13;;
75898;SDS011;64576;50.460;4.866;2023-06-22T06:58:44;25.45;;;17.85;;
75898;SDS011;64576;50.460;4.866;2023-06-22T07:01:11;31.17;;;17.45;;
75898;SDS011;64576;50.460;4.866;2023-06-22T07:03:37;27.92;;;17.33;;
75898;SDS011;64576;50.460;4.866;2023-06-22T07:06:03;33.13;;;17.92;;
75898;SDS011;64576;50.460;4.866;2023-06-22T07:08:29;31.95;;;20.33;;
75898;SDS011;64576;50.460;4.866;2023-06-22T07:10:54;28.55;;;17.92;;
75898;SDS011;64576;50.460;4.866;2023-06-22T07:13:19;25.90;;;17.10;;
75898;SDS011;64576;50.460;4.866;2023-06-22T07:15:45;28.35;;;17.13;;
75898;SDS011;64576;50.460;4.866;2023-06-22T07:18:10;26.83;;;16.67;;
75898;SDS011;64576;50.460;4.866;2023-06-22T07:20:36;27.95;;;17.27;;
75898;SDS011;64576;50.460;4.866;2023-06-22T07:23:01;26.30;;;17.73;;
75898;SDS011;64576;50.460;4.866;2023-06-22T07:25:26;29.20;;;18.48;;
75898;SDS011;64576;50.460;4.866;2023-06-22T07:28:00;24.40;;;16.67;;
75898;SDS011;64576;50.460;4.866;2023-06-22T07:30:27;26.02;;;16.50;;
75898;SDS011;64576;50.460;4.866;2023-06-22T07:32:53;25.20;;;16.88;;
75898;SDS011;64576;50.460;4.866;2023-06-22T07:35:19;26.63;;;16.67;;
75898;SDS011;64576;50.460;4.866;2023-06-22T07:37:44;24.50;;;17.27;;
75898;SDS011;64576;50.460;4.866;2023-06-22T07:40:10;26.13;;;17.13;;
75898;SDS011;64576;50.460;4.866;2023-06-22T07:42:35;27.60;;;18.85;;
75898;SDS011;64576;50.460;4.866;2023-06-22T07:45:02;29.60;;;21.10;;
75898;SDS011;64576;50.460;4.866;2023-06-22T07:47:28;28.17;;;18.33;;
75898;SDS011;64576;50.460;4.866;2023-06-22T07:49:54;27.65;;;18.65;;
75898;SDS011;64576;50.460;4.866;2023-06-22T07:52:22;28.75;;;17.92;;
75898;SDS011;64576;50.460;4.866;2023-06-22T07:54:47;28.73;;;19.27;;
75898;SDS011;64576;50.460;4.866;2023-06-22T07:57:13;27.13;;;18.98;;
75898;SDS011;64576;50.460;4.866;2023-06-22T07:59:38;27.85;;;17.58;;
75898;SDS011;64576;50.460;4.866;2023-06-22T08:02:04;28.30;;;18.55;;
75898;SDS011;64576;50.460;4.866;2023-06-22T08:04:30;27.58;;;17.10;;
75898;SDS011;64576;50.460;4.866;2023-06-22T08:06:59;31.33;;;20.83;;
75898;SDS011;64576;50.460;4.866;2023-06-22T08:09:25;28.52;;;19.42;;
75898;SDS011;64576;50.460;4.866;2023-06-22T08:11:50;30.02;;;20.35;;
75898;SDS011;64576;50.460;4.866;2023-06-22T08:14:15;28.75;;;19.95;;
75898;SDS011;64576;50.460;4.866;2023-06-22T08:16:41;37.65;;;21.02;;
75898;SDS011;64576;50.460;4.866;2023-06-22T08:19:07;31.00;;;20.45;;
75898;SDS011;64576;50.460;4.866;2023-06-22T08:21:32;27.10;;;19.65;;
75898;SDS011;64576;50.460;4.866;2023-06-22T08:23:57;32.25;;;20.67;;
75898;SDS011;64576;50.460;4.866;2023-06-22T08:26:23;31.83;;;21.63;;
75898;SDS011;64576;50.460;4.866;2023-06-22T08:28:48;42.97;;;25.95;;
75898;SDS011;64576;50.460;4.866;2023-06-22T08:31:14;34.45;;;23.25;;
75898;SDS011;64576;50.460;4.866;2023-06-22T08:33:39;30.83;;;23.48;;
75898;SDS011;64576;50.460;4.866;2023-06-22T08:36:05;33.47;;;24.02;;
75898;SDS011;64576;50.460;4.866;2023-06-22T08:38:31;41.47;;;27.70;;
75898;SDS011;64576;50.460;4.866;2023-06-22T08:40:58;36.17;;;26.52;;
75898;SDS011;64576;50.460;4.866;2023-06-22T08:43:23;40.15;;;28.45;;
75898;SDS011;64576;50.460;4.866;2023-06-22T08:45:48;42.35;;;26.33;;
75898;SDS011;64576;50.460;4.866;2023-06-22T08:48:14;37.13;;;26.85;;
75898;SDS011;64576;50.460;4.866;2023-06-22T08:50:39;39.15;;;27.50;;
75898;SDS011;64576;50.460;4.866;2023-06-22T08:53:07;37.35;;;25.60;;
75898;SDS011;64576;50.460;4.866;2023-06-22T08:55:33;38.08;;;25.52;;
75898;SDS011;64576;50.460;4.866;2023-06-22T08:57:58;46.20;;;26.95;;
75898;SDS011;64576;50.460;4.866;2023-06-22T09:00:24;41.92;;;27.05;;
75898;SDS011;64576;50.460;4.866;2023-06-22T09:02:49;41.53;;;30.70;;
75898;SDS011;64576;50.460;4.866;2023-06-22T09:05:15;41.55;;;28.48;;
75898;SDS011;64576;50.460;4.866;2023-06-22T09:07:41;43.92;;;29.98;;
75898;SDS011;64576;50.460;4.866;2023-06-22T09:10:06;48.78;;;31.60;;
75898;SDS011;64576;50.460;4.866;2023-06-22T09:12:32;48.60;;;31.35;;
75898;SDS011;64576;50.460;4.866;2023-06-22T09:15:01;48.92;;;31.85;;
75898;SDS011;64576;50.460;4.866;2023-06-22T09:17:27;47.33;;;32.22;;
75898;SDS011;64576;50.460;4.866;2023-06-22T09:19:53;60.38;;;35.88;;
75898;SDS011;64576;50.460;4.866;2023-06-22T09:22:18;70.57;;;40.83;;
75898;SDS011;64576;50.460;4.866;2023-06-22T09:24:44;68.72;;;41.72;;
75898;SDS011;64576;50.460;4.866;2023-06-22T09:27:09;83.18;;;50.97;;
75898;SDS011;64576;50.460;4.866;2023-06-22T09:29:34;79.07;;;45.78;;
75898;SDS011;64576;50.460;4.866;2023-06-22T09:32:00;92.97;;;51.65;;
75898;SDS011;64576;50.460;4.866;2023-06-22T09:34:25;76.00;;;46.33;;
75898;SDS011;64576;50.460;4.866;2023-06-22T09:36:51;84.65;;;49.35;;
75898;SDS011;64576;50.460;4.866;2023-06-22T09:39:17;80.95;;;47.53;;
75898;SDS011;64576;50.460;4.866;2023-06-22T09:41:43;97.00;;;51.72;;
75898;SDS011;64576;50.460;4.866;2023-06-22T09:44:09;90.45;;;52.60;;
75898;SDS011;64576;50.460;4.866;2023-06-22T09:46:34;91.47;;;55.22;;
75898;SDS011;64576;50.460;4.866;2023-06-22T09:49:00;94.75;;;54.40;;
75898;SDS011;64576;50.460;4.866;2023-06-22T09:51:25;106.70;;;57.95;;
75898;SDS011;64576;50.460;4.866;2023-06-22T09:53:51;118.22;;;64.55;;
75898;SDS011;64576;50.460;4.866;2023-06-22T09:56:19;376.15;;;86.45;;
75898;SDS011;64576;50.460;4.866;2023-06-22T09:58:45;383.75;;;89.32;;
75898;SDS011;64576;50.460;4.866;2023-06-22T10:01:15;235.25;;;77.80;;
75898;SDS011;64576;50.460;4.866;2023-06-22T10:03:41;230.25;;;75.40;;
75898;SDS011;64576;50.460;4.866;2023-06-22T10:06:06;252.40;;;75.90;;
75898;SDS011;64576;50.460;4.866;2023-06-22T10:08:32;194.27;;;67.63;;
75898;SDS011;64576;50.460;4.866;2023-06-22T10:10:57;248.32;;;71.50;;
75898;SDS011;64576;50.460;4.866;2023-06-22T10:13:23;138.90;;;63.97;;
75898;SDS011;64576;50.460;4.866;2023-06-22T10:15:48;119.35;;;59.60;;
75898;SDS011;64576;50.460;4.866;2023-06-22T10:18:16;112.40;;;56.50;;
75898;SDS011;64576;50.460;4.866;2023-06-22T10:20:42;110.47;;;57.17;;
75898;SDS011;64576;50.460;4.866;2023-06-22T10:23:08;104.03;;;57.78;;
75898;SDS011;64576;50.460;4.866;2023-06-22T10:25:33;88.13;;;51.65;;
75898;SDS011;64576;50.460;4.866;2023-06-22T10:27:59;82.97;;;49.17;;
75898;SDS011;64576;50.460;4.866;2023-06-22T10:30:24;93.40;;;51.88;;
75898;SDS011;64576;50.460;4.866;2023-06-22T10:32:50;87.55;;;50.38;;
75898;SDS011;64576;50.460;4.866;2023-06-22T10:35:15;77.90;;;49.03;;
75898;SDS011;64576;50.460;4.866;2023-06-22T10:37:44;69.13;;;43.22;;
75898;SDS011;64576;50.460;4.866;2023-06-22T10:40:14;72.90;;;45.53;;
75898;SDS011;64576;50.460;4.866;2023-06-22T10:42:40;69.03;;;42.05;;
75898;SDS011;64576;50.460;4.866;2023-06-22T10:45:06;74.28;;;44.90;;
75898;SDS011;64576;50.460;4.866;2023-06-22T10:47:33;75.35;;;45.65;;
75898;SDS011;64576;50.460;4.866;2023-06-22T10:49:59;76.82;;;47.05;;
75898;SDS011;64576;50.460;4.866;2023-06-22T10:52:24;81.30;;;50.10;;
75898;SDS011;64576;50.460;4.866;2023-06-22T10:54:49;82.13;;;51.58;;
75898;SDS011;64576;50.460;4.866;2023-06-22T10:57:15;84.35;;;47.92;;
75898;SDS011;64576;50.460;4.866;2023-06-22T10:59:40;87.85;;;49.42;;
75898;SDS011;64576;50.460;4.866;2023-06-22T11:02:06;90.43;;;51.95;;
75898;SDS011;64576;50.460;4.866;2023-06-22T11:04:31;87.65;;;49.83;;
75898;SDS011;64576;50.460;4.866;2023-06-22T11:06:56;92.15;;;51.33;;
75898;SDS011;64576;50.460;4.866;2023-06-22T11:09:22;97.53;;;54.70;;
75898;SDS011;64576;50.460;4.866;2023-06-22T11:11:49;92.55;;;52.28;;
75898;SDS011;64576;50.460;4.866;2023-06-22T11:14:16;108.13;;;54.55;;
75898;SDS011;64576;50.460;4.866;2023-06-22T11:16:41;103.40;;;55.13;;
75898;SDS011;64576;50.460;4.866;2023-06-22T11:19:07;111.72;;;56.75;;
75898;SDS011;64576;50.460;4.866;2023-06-22T11:21:32;101.45;;;56.47;;
75898;SDS011;64576;50.460;4.866;2023-06-22T11:23:58;123.70;;;55.78;;
75898;SDS011;64576;50.460;4.866;2023-06-22T11:26:24;101.35;;;55.47;;
75898;SDS011;64576;50.460;4.866;2023-06-22T11:28:52;108.80;;;54.78;;
75898;SDS011;64576;50.460;4.866;2023-06-22T11:31:18;103.72;;;56.40;;
75898;SDS011;64576;50.460;4.866;2023-06-22T11:33:43;122.32;;;60.72;;
75898;SDS011;64576;50.460;4.866;2023-06-22T11:36:10;121.28;;;60.83;;
75898;SDS011;64576;50.460;4.866;2023-06-22T11:38:36;125.30;;;58.97;;
75898;SDS011;64576;50.460;4.866;2023-06-22T11:41:04;126.45;;;60.25;;
75898;SDS011;64576;50.460;4.866;2023-06-22T11:43:30;130.45;;;62.47;;
75898;SDS011;64576;50.460;4.866;2023-06-22T11:45:56;110.75;;;57.55;;
75898;SDS011;64576;50.460;4.866;2023-06-22T11:48:22;117.47;;;59.25;;
75898;SDS011;64576;50.460;4.866;2023-06-22T11:50:49;124.90;;;60.47;;
75898;SDS011;64576;50.460;4.866;2023-06-22T11:53:14;144.60;;;60.72;;
75898;SDS011;64576;50.460;4.866;2023-06-22T11:55:41;105.18;;;54.08;;
75898;SDS011;64576;50.460;4.866;2023-06-22T11:58:07;130.27;;;59.30;;
75898;SDS011;64576;50.460;4.866;2023-06-22T12:00:33;126.13;;;59.97;;
75898;SDS011;64576;50.460;4.866;2023-06-22T12:02:58;138.48;;;62.38;;
75898;SDS011;64576;50.460;4.866;2023-06-22T12:05:24;132.60;;;67.80;;
75898;SDS011;64576;50.460;4.866;2023-06-22T12:07:50;158.85;;;59.60;;
75898;SDS011;64576;50.460;4.866;2023-06-22T12:10:17;155.13;;;60.58;;
75898;SDS011;64576;50.460;4.866;2023-06-22T12:12:43;132.85;;;60.20;;
75898;SDS011;64576;50.460;4.866;2023-06-22T12:15:09;177.27;;;61.90;;
75898;SDS011;64576;50.460;4.866;2023-06-22T12:17:35;412.33;;;78.22;;
75898;SDS011;64576;50.460;4.866;2023-06-22T12:20:00;331.73;;;70.18;;
75898;SDS011;64576;50.460;4.866;2023-06-22T12:22:27;209.40;;;62.58;;
75898;SDS011;64576;50.460;4.866;2023-06-22T12:24:52;132.38;;;57.78;;
75898;SDS011;64576;50.460;4.866;2023-06-22T12:27:18;362.27;;;76.78;;
75898;SDS011;64576;50.460;4.866;2023-06-22T12:29:45;376.52;;;81.63;;
75898;SDS011;64576;50.460;4.866;2023-06-22T12:32:11;206.77;;;62.83;;
75898;SDS011;64576;50.460;4.866;2023-06-22T12:34:39;139.57;;;55.53;;
75898;SDS011;64576;50.460;4.866;2023-06-22T12:37:04;364.38;;;74.85;;
75898;SDS011;64576;50.460;4.866;2023-06-22T12:39:33;600.67;;;93.65;;
75898;SDS011;64576;50.460;4.866;2023-06-22T12:41:58;322.48;;;66.63;;
75898;SDS011;64576;50.460;4.866;2023-06-22T12:44:24;390.35;;;71.80;;
75898;SDS011;64576;50.460;4.866;2023-06-22T12:46:49;192.68;;;55.30;;
75898;SDS011;64576;50.460;4.866;2023-06-22T12:49:15;108.80;;;43.20;;
75898;SDS011;64576;50.460;4.866;2023-06-22T12:51:40;163.15;;;51.47;;
75898;SDS011;64576;50.460;4.866;2023-06-22T12:54:07;370.15;;;68.75;;
75898;SDS011;64576;50.460;4.866;2023-06-22T12:56:33;263.92;;;54.03;;
75898;SDS011;64576;50.460;4.866;2023-06-22T12:58:58;337.75;;;61.25;;
75898;SDS011;64576;50.460;4.866;2023-06-22T13:01:26;127.05;;;44.38;;
75898;SDS011;64576;50.460;4.866;2023-06-22T13:03:55;153.68;;;45.00;;
75898;SDS011;64576;50.460;4.866;2023-06-22T13:06:21;329.90;;;57.58;;
75898;SDS011;64576;50.460;4.866;2023-06-22T13:08:46;163.02;;;47.33;;
75898;SDS011;64576;50.460;4.866;2023-06-22T13:11:12;391.38;;;63.60;;
75898;SDS011;64576;50.460;4.866;2023-06-22T13:13:37;143.70;;;46.67;;
75898;SDS011;64576;50.460;4.866;2023-06-22T13:16:03;679.15;;;94.55;;
75898;SDS011;64576;50.460;4.866;2023-06-22T13:18:29;294.38;;;50.13;;
75898;SDS011;64576;50.460;4.866;2023-06-22T13:20:54;386.80;;;63.80;;
75898;SDS011;64576;50.460;4.866;2023-06-22T13:23:22;434.15;;;68.43;;
75898;SDS011;64576;50.460;4.866;2023-06-22T13:25:48;288.77;;;54.42;;
75898;SDS011;64576;50.460;4.866;2023-06-22T13:28:13;727.08;;;95.70;;
75898;SDS011;64576;50.460;4.866;2023-06-22T13:30:40;711.83;;;104.55;;
75898;SDS011;64576;50.460;4.866;2023-06-22T13:33:06;154.13;;;48.38;;
75898;SDS011;64576;50.460;4.866;2023-06-22T13:35:32;171.32;;;47.60;;
75898;SDS011;64576;50.460;4.866;2023-06-22T13:37:57;229.88;;;50.90;;
75898;SDS011;64576;50.460;4.866;2023-06-22T13:40:22;466.45;;;68.35;;
75898;SDS011;64576;50.460;4.866;2023-06-22T13:42:48;592.45;;;85.95;;
75898;SDS011;64576;50.460;4.866;2023-06-22T13:45:13;107.00;;;45.72;;
75898;SDS011;64576;50.460;4.866;2023-06-22T13:47:41;104.55;;;42.78;;
75898;SDS011;64576;50.460;4.866;2023-06-22T13:50:07;97.72;;;40.55;;
75898;SDS011;64576;50.460;4.866;2023-06-22T13:52:32;221.98;;;45.17;;
75898;SDS011;64576;50.460;4.866;2023-06-22T13:54:58;128.07;;;42.17;;
75898;SDS011;64576;50.460;4.866;2023-06-22T13:57:23;113.25;;;43.83;;
75898;SDS011;64576;50.460;4.866;2023-06-22T13:59:48;116.38;;;41.72;;
75898;SDS011;64576;50.460;4.866;2023-06-22T14:02:14;99.63;;;39.00;;
75898;SDS011;64576;50.460;4.866;2023-06-22T14:04:39;81.32;;;38.30;;
75898;SDS011;64576;50.460;4.866;2023-06-22T14:07:05;125.95;;;40.05;;
75898;SDS011;64576;50.460;4.866;2023-06-22T14:09:30;92.53;;;38.75;;
75898;SDS011;64576;50.460;4.866;2023-06-22T14:11:55;85.07;;;35.60;;
75898;SDS011;64576;50.460;4.866;2023-06-22T14:14:21;182.45;;;42.95;;
75898;SDS011;64576;50.460;4.866;2023-06-22T14:16:46;77.28;;;31.67;;
75898;SDS011;64576;50.460;4.866;2023-06-22T14:19:12;167.07;;;40.20;;
75898;SDS011;64576;50.460;4.866;2023-06-22T14:21:38;190.52;;;40.25;;
75898;SDS011;64576;50.460;4.866;2023-06-22T14:24:08;87.18;;;32.35;;
75898;SDS011;64576;50.460;4.866;2023-06-22T14:26:34;72.13;;;33.63;;
75898;SDS011;64576;50.460;4.866;2023-06-22T14:29:00;121.63;;;34.13;;